sensor_id;sensor_type;location;lat;lon;timestamp;P1;durP1;ratioP1;P2;durP2;ratioP2
8592;SDS011;4334;49.982;8.398;2023-02-04T00:02:03;7.87;;;3.10;;
8592;SDS011;4334;49.982;8.398;2023-02-04T00:04:31;7.60;;;3.20;;
8592;SDS011;4334;49.982;8.398;2023-02-04T00:06:58;10.10;;;3.00;;
8592;SDS011;4334;49.982;8.398;2023-02-04T00:09:25;10.93;;;3.43;;
8592;SDS011;4334;49.982;8.398;2023-02-04T00:11:51;7.53;;;2.80;;
8592;SDS011;4334;49.982;8.398;2023-02-04T00:14:18;7.47;;;2.60;;
8592;SDS011;4334;49.982;8.398;2023-02-04T00:16:45;7.43;;;2.90;;
8592;SDS011;4334;49.982;8.398;2023-02-04T00:19:12;14.57;;;3.10;;
8592;SDS011;4334;49.982;8.398;2023-02-04T00:21:40;9.27;;;3.30;;
8592;SDS011;4334;49.982;8.398;2023-02-04T00:24:06;12.03;;;3.03;;
8592;SDS011;4334;49.982;8.398;2023-02-04T00:26:34;8.10;;;2.93;;
8592;SDS011;4334;49.982;8.398;2023-02-04T00:29:01;12.27;;;3.00;;
8592;SDS011;4334;49.982;8.398;2023-02-04T00:31:27;13.70;;;3.57;;
8592;SDS011;4334;49.982;8.398;2023-02-04T00:33:55;11.40;;;2.70;;
8592;SDS011;4334;49.982;8.398;2023-02-04T00:36:21;12.47;;;3.77;;
8592;SDS011;4334;49.982;8.398;2023-02-04T00:38:49;9.07;;;2.90;;
8592;SDS011;4334;49.982;8.398;2023-02-04T00:41:16;8.43;;;3.10;;
8592;SDS011;4334;49.982;8.398;2023-02-04T00:43:43;15.43;;;3.60;;
8592;SDS011;4334;49.982;8.398;2023-02-04T00:46:09;10.63;;;2.93;;
8592;SDS011;4334;49.982;8.398;2023-02-04T00:48:36;7.73;;;2.80;;
8592;SDS011;4334;49.982;8.398;2023-02-04T00:51:03;9.67;;;2.80;;
8592;SDS011;4334;49.982;8.398;2023-02-04T00:53:30;7.37;;;2.33;;
8592;SDS011;4334;49.982;8.398;2023-02-04T00:55:58;13.47;;;3.27;;
8592;SDS011;4334;49.982;8.398;2023-02-04T00:58:25;7.50;;;2.90;;
8592;SDS011;4334;49.982;8.398;2023-02-04T01:00:52;8.93;;;2.90;;
8592;SDS011;4334;49.982;8.398;2023-02-04T01:03:18;10.10;;;3.10;;
8592;SDS011;4334;49.982;8.398;2023-02-04T01:05:45;12.00;;;3.07;;
8592;SDS011;4334;49.982;8.398;2023-02-04T01:08:12;10.43;;;3.00;;
8592;SDS011;4334;49.982;8.398;2023-02-04T01:10:38;15.93;;;3.30;;
8592;SDS011;4334;49.982;8.398;2023-02-04T01:13:07;9.17;;;2.87;;
8592;SDS011;4334;49.982;8.398;2023-02-04T01:15:34;11.27;;;3.27;;
8592;SDS011;4334;49.982;8.398;2023-02-04T01:18:01;11.70;;;2.97;;
8592;SDS011;4334;49.982;8.398;2023-02-04T01:20:28;11.20;;;2.70;;
8592;SDS011;4334;49.982;8.398;2023-02-04T01:22:54;8.60;;;2.93;;
8592;SDS011;4334;49.982;8.398;2023-02-04T01:25:21;10.50;;;3.10;;
8592;SDS011;4334;49.982;8.398;2023-02-04T01:27:48;12.33;;;2.97;;
8592;SDS011;4334;49.982;8.398;2023-02-04T01:30:16;10.87;;;3.10;;
8592;SDS011;4334;49.982;8.398;2023-02-04T01:32:43;9.13;;;2.70;;
8592;SDS011;4334;49.982;8.398;2023-02-04T01:35:10;11.57;;;2.70;;
8592;SDS011;4334;49.982;8.398;2023-02-04T01:37:37;12.60;;;2.70;;
8592;SDS011;4334;49.982;8.398;2023-02-04T01:40:04;14.70;;;3.27;;
8592;SDS011;4334;49.982;8.398;2023-02-04T01:42:32;10.20;;;3.40;;
8592;SDS011;4334;49.982;8.398;2023-02-04T01:44:58;11.47;;;3.77;;
8592;SDS011;4334;49.982;8.398;2023-02-04T01:47:27;11.53;;;3.80;;
8592;SDS011;4334;49.982;8.398;2023-02-04T01:49:54;13.27;;;3.10;;
8592;SDS011;4334;49.982;8.398;2023-02-04T01:52:21;13.97;;;3.27;;
8592;SDS011;4334;49.982;8.398;2023-02-04T01:54:49;18.13;;;3.63;;
8592;SDS011;4334;49.982;8.398;2023-02-04T01:57:16;10.37;;;3.47;;
8592;SDS011;4334;49.982;8.398;2023-02-04T01:59:44;17.77;;;3.70;;
8592;SDS011;4334;49.982;8.398;2023-02-04T02:05:05;12.20;;;3.40;;
8592;SDS011;4334;49.982;8.398;2023-02-04T02:07:33;18.13;;;4.10;;
8592;SDS011;4334;49.982;8.398;2023-02-04T02:10:00;11.90;;;3.90;;
8592;SDS011;4334;49.982;8.398;2023-02-04T02:12:28;11.10;;;3.60;;
8592;SDS011;4334;49.982;8.398;2023-02-04T02:14:54;12.17;;;3.90;;
8592;SDS011;4334;49.982;8.398;2023-02-04T02:17:22;11.60;;;3.83;;
8592;SDS011;4334;49.982;8.398;2023-02-04T02:19:50;11.13;;;3.80;;
8592;SDS011;4334;49.982;8.398;2023-02-04T02:22:19;17.37;;;4.30;;
8592;SDS011;4334;49.982;8.398;2023-02-04T02:24:52;14.27;;;3.70;;
8592;SDS011;4334;49.982;8.398;2023-02-04T02:27:19;14.93;;;3.87;;
8592;SDS011;4334;49.982;8.398;2023-02-04T02:29:47;17.77;;;4.57;;
8592;SDS011;4334;49.982;8.398;2023-02-04T02:32:14;15.07;;;4.00;;
8592;SDS011;4334;49.982;8.398;2023-02-04T02:34:41;13.50;;;3.30;;
8592;SDS011;4334;49.982;8.398;2023-02-04T02:37:09;9.43;;;3.90;;
8592;SDS011;4334;49.982;8.398;2023-02-04T02:39:37;12.37;;;3.77;;
8592;SDS011;4334;49.982;8.398;2023-02-04T02:42:09;12.23;;;3.80;;
8592;SDS011;4334;49.982;8.398;2023-02-04T02:44:39;17.83;;;4.03;;
8592;SDS011;4334;49.982;8.398;2023-02-04T02:47:07;17.60;;;3.97;;
8592;SDS011;4334;49.982;8.398;2023-02-04T02:49:38;12.07;;;3.80;;
8592;SDS011;4334;49.982;8.398;2023-02-04T02:52:07;16.93;;;4.37;;
8592;SDS011;4334;49.982;8.398;2023-02-04T02:54:36;17.40;;;4.23;;
8592;SDS011;4334;49.982;8.398;2023-02-04T02:57:04;11.57;;;3.70;;
8592;SDS011;4334;49.982;8.398;2023-02-04T02:59:38;13.47;;;3.73;;
8592;SDS011;4334;49.982;8.398;2023-02-04T03:02:05;10.13;;;3.53;;
8592;SDS011;4334;49.982;8.398;2023-02-04T03:04:33;14.43;;;3.80;;
8592;SDS011;4334;49.982;8.398;2023-02-04T03:07:05;10.93;;;3.40;;
8592;SDS011;4334;49.982;8.398;2023-02-04T03:09:32;16.03;;;3.53;;
8592;SDS011;4334;49.982;8.398;2023-02-04T03:11:59;13.00;;;3.63;;
8592;SDS011;4334;49.982;8.398;2023-02-04T03:14:28;15.67;;;3.87;;
8592;SDS011;4334;49.982;8.398;2023-02-04T03:16:55;18.37;;;4.50;;
8592;SDS011;4334;49.982;8.398;2023-02-04T03:19:22;12.20;;;3.90;;
8592;SDS011;4334;49.982;8.398;2023-02-04T03:21:51;16.27;;;3.87;;
8592;SDS011;4334;49.982;8.398;2023-02-04T03:24:18;9.77;;;3.87;;
8592;SDS011;4334;49.982;8.398;2023-02-04T03:26:45;12.13;;;4.23;;
8592;SDS011;4334;49.982;8.398;2023-02-04T03:29:12;17.43;;;3.83;;
8592;SDS011;4334;49.982;8.398;2023-02-04T03:31:40;15.07;;;3.20;;
8592;SDS011;4334;49.982;8.398;2023-02-04T03:34:07;14.80;;;3.87;;
8592;SDS011;4334;49.982;8.398;2023-02-04T03:36:34;10.97;;;3.53;;
8592;SDS011;4334;49.982;8.398;2023-02-04T03:39:01;12.97;;;3.30;;
8592;SDS011;4334;49.982;8.398;2023-02-04T03:41:29;18.20;;;3.67;;
8592;SDS011;4334;49.982;8.398;2023-02-04T03:43:55;12.80;;;3.40;;
8592;SDS011;4334;49.982;8.398;2023-02-04T03:46:22;12.40;;;3.60;;
8592;SDS011;4334;49.982;8.398;2023-02-04T03:48:51;18.97;;;3.90;;
8592;SDS011;4334;49.982;8.398;2023-02-04T03:51:18;11.97;;;3.70;;
8592;SDS011;4334;49.982;8.398;2023-02-04T03:53:44;12.10;;;3.27;;
8592;SDS011;4334;49.982;8.398;2023-02-04T03:56:11;11.20;;;3.60;;
8592;SDS011;4334;49.982;8.398;2023-02-04T03:58:38;10.67;;;3.63;;
8592;SDS011;4334;49.982;8.398;2023-02-04T04:01:05;20.30;;;3.93;;
8592;SDS011;4334;49.982;8.398;2023-02-04T04:03:32;11.00;;;3.60;;
8592;SDS011;4334;49.982;8.398;2023-02-04T04:06:00;13.70;;;3.50;;
8592;SDS011;4334;49.982;8.398;2023-02-04T04:08:29;16.67;;;3.90;;
8592;SDS011;4334;49.982;8.398;2023-02-04T04:10:56;12.50;;;3.40;;
8592;SDS011;4334;49.982;8.398;2023-02-04T04:13:22;13.87;;;3.77;;
8592;SDS011;4334;49.982;8.398;2023-02-04T04:15:49;15.97;;;3.60;;
8592;SDS011;4334;49.982;8.398;2023-02-04T04:18:16;12.50;;;3.87;;
8592;SDS011;4334;49.982;8.398;2023-02-04T04:20:42;13.33;;;3.93;;
8592;SDS011;4334;49.982;8.398;2023-02-04T04:23:10;15.50;;;3.93;;
8592;SDS011;4334;49.982;8.398;2023-02-04T04:25:37;13.80;;;3.67;;
8592;SDS011;4334;49.982;8.398;2023-02-04T04:28:04;13.90;;;4.20;;
8592;SDS011;4334;49.982;8.398;2023-02-04T04:30:30;17.30;;;3.97;;
8592;SDS011;4334;49.982;8.398;2023-02-04T04:32:58;17.03;;;3.80;;
8592;SDS011;4334;49.982;8.398;2023-02-04T04:35:24;14.03;;;3.33;;
8592;SDS011;4334;49.982;8.398;2023-02-04T04:37:51;16.97;;;4.03;;
8592;SDS011;4334;49.982;8.398;2023-02-04T04:40:19;11.50;;;3.47;;
8592;SDS011;4334;49.982;8.398;2023-02-04T04:42:46;17.83;;;4.03;;
8592;SDS011;4334;49.982;8.398;2023-02-04T04:45:13;16.50;;;4.10;;
8592;SDS011;4334;49.982;8.398;2023-02-04T04:47:40;12.73;;;3.83;;
8592;SDS011;4334;49.982;8.398;2023-02-04T04:50:07;14.13;;;3.63;;
8592;SDS011;4334;49.982;8.398;2023-02-04T04:52:34;15.37;;;4.23;;
8592;SDS011;4334;49.982;8.398;2023-02-04T04:55:00;17.97;;;4.07;;
8592;SDS011;4334;49.982;8.398;2023-02-04T04:57:29;18.60;;;3.73;;
8592;SDS011;4334;49.982;8.398;2023-02-04T04:59:55;18.40;;;3.90;;
8592;SDS011;4334;49.982;8.398;2023-02-04T05:02:22;17.50;;;3.70;;
8592;SDS011;4334;49.982;8.398;2023-02-04T05:04:49;22.13;;;4.27;;
8592;SDS011;4334;49.982;8.398;2023-02-04T05:07:16;13.77;;;3.57;;
8592;SDS011;4334;49.982;8.398;2023-02-04T05:09:42;16.60;;;3.90;;
8592;SDS011;4334;49.982;8.398;2023-02-04T05:12:09;17.37;;;3.87;;
8592;SDS011;4334;49.982;8.398;2023-02-04T05:14:37;16.80;;;4.30;;
8592;SDS011;4334;49.982;8.398;2023-02-04T05:17:04;15.53;;;3.70;;
8592;SDS011;4334;49.982;8.398;2023-02-04T05:19:31;14.20;;;4.07;;
8592;SDS011;4334;49.982;8.398;2023-02-04T05:21:58;15.57;;;3.70;;
8592;SDS011;4334;49.982;8.398;2023-02-04T05:24:25;18.20;;;4.23;;
8592;SDS011;4334;49.982;8.398;2023-02-04T05:26:52;15.63;;;4.10;;
8592;SDS011;4334;49.982;8.398;2023-02-04T05:29:19;16.10;;;3.90;;
8592;SDS011;4334;49.982;8.398;2023-02-04T05:31:47;18.90;;;4.23;;
8592;SDS011;4334;49.982;8.398;2023-02-04T05:34:14;15.63;;;3.97;;
8592;SDS011;4334;49.982;8.398;2023-02-04T05:36:40;19.13;;;3.30;;
8592;SDS011;4334;49.982;8.398;2023-02-04T05:39:07;20.40;;;4.23;;
8592;SDS011;4334;49.982;8.398;2023-02-04T05:41:34;18.07;;;4.27;;
8592;SDS011;4334;49.982;8.398;2023-02-04T05:44:01;14.60;;;3.80;;
8592;SDS011;4334;49.982;8.398;2023-02-04T05:46:28;17.17;;;3.90;;
8592;SDS011;4334;49.982;8.398;2023-02-04T05:48:56;18.80;;;4.10;;
8592;SDS011;4334;49.982;8.398;2023-02-04T05:51:22;17.30;;;4.00;;
8592;SDS011;4334;49.982;8.398;2023-02-04T05:53:49;17.77;;;3.97;;
8592;SDS011;4334;49.982;8.398;2023-02-04T05:56:16;18.20;;;4.40;;
8592;SDS011;4334;49.982;8.398;2023-02-04T05:58:42;11.87;;;3.80;;
8592;SDS011;4334;49.982;8.398;2023-02-04T06:01:09;17.73;;;4.07;;
8592;SDS011;4334;49.982;8.398;2023-02-04T06:03:36;20.67;;;4.13;;
8592;SDS011;4334;49.982;8.398;2023-02-04T06:06:04;16.27;;;3.63;;
8592;SDS011;4334;49.982;8.398;2023-02-04T06:08:31;18.17;;;4.20;;
8592;SDS011;4334;49.982;8.398;2023-02-04T06:10:58;16.37;;;4.00;;
8592;SDS011;4334;49.982;8.398;2023-02-04T06:13:25;17.40;;;4.07;;
8592;SDS011;4334;49.982;8.398;2023-02-04T06:15:51;22.27;;;4.67;;
8592;SDS011;4334;49.982;8.398;2023-02-04T06:18:18;15.40;;;3.80;;
8592;SDS011;4334;49.982;8.398;2023-02-04T06:20:45;21.07;;;4.17;;
8592;SDS011;4334;49.982;8.398;2023-02-04T06:23:14;14.63;;;3.77;;
8592;SDS011;4334;49.982;8.398;2023-02-04T06:25:40;16.53;;;4.20;;
8592;SDS011;4334;49.982;8.398;2023-02-04T06:28:07;14.33;;;4.03;;
8592;SDS011;4334;49.982;8.398;2023-02-04T06:30:34;25.93;;;4.47;;
8592;SDS011;4334;49.982;8.398;2023-02-04T06:33:01;17.00;;;3.70;;
8592;SDS011;4334;49.982;8.398;2023-02-04T06:35:28;22.80;;;4.27;;
8592;SDS011;4334;49.982;8.398;2023-02-04T06:37:55;19.17;;;4.70;;
8592;SDS011;4334;49.982;8.398;2023-02-04T06:40:23;17.40;;;4.00;;
8592;SDS011;4334;49.982;8.398;2023-02-04T06:42:49;17.90;;;3.87;;
8592;SDS011;4334;49.982;8.398;2023-02-04T06:45:16;18.87;;;4.17;;
8592;SDS011;4334;49.982;8.398;2023-02-04T06:47:43;19.80;;;4.17;;
8592;SDS011;4334;49.982;8.398;2023-02-04T06:50:10;15.00;;;3.50;;
8592;SDS011;4334;49.982;8.398;2023-02-04T06:52:36;20.97;;;4.17;;
8592;SDS011;4334;49.982;8.398;2023-02-04T06:55:03;16.30;;;4.20;;
8592;SDS011;4334;49.982;8.398;2023-02-04T06:57:31;17.07;;;3.47;;
8592;SDS011;4334;49.982;8.398;2023-02-04T06:59:59;13.03;;;3.70;;
8592;SDS011;4334;49.982;8.398;2023-02-04T07:02:25;23.20;;;4.73;;
8592;SDS011;4334;49.982;8.398;2023-02-04T07:04:52;19.90;;;3.83;;
8592;SDS011;4334;49.982;8.398;2023-02-04T07:07:19;16.50;;;4.00;;
8592;SDS011;4334;49.982;8.398;2023-02-04T07:09:46;20.37;;;4.37;;
8592;SDS011;4334;49.982;8.398;2023-02-04T07:12:12;15.70;;;3.87;;
8592;SDS011;4334;49.982;8.398;2023-02-04T07:14:40;17.67;;;3.83;;
8592;SDS011;4334;49.982;8.398;2023-02-04T07:17:07;22.67;;;4.23;;
8592;SDS011;4334;49.982;8.398;2023-02-04T07:19:34;19.23;;;4.53;;
8592;SDS011;4334;49.982;8.398;2023-02-04T07:22:01;17.20;;;4.00;;
8592;SDS011;4334;49.982;8.398;2023-02-04T07:24:27;19.07;;;4.10;;
8592;SDS011;4334;49.982;8.398;2023-02-04T07:26:54;15.47;;;4.20;;
8592;SDS011;4334;49.982;8.398;2023-02-04T07:29:21;12.43;;;3.93;;
8592;SDS011;4334;49.982;8.398;2023-02-04T07:31:49;16.23;;;4.37;;
8592;SDS011;4334;49.982;8.398;2023-02-04T07:34:17;16.27;;;4.20;;
8592;SDS011;4334;49.982;8.398;2023-02-04T07:36:44;17.17;;;4.23;;
8592;SDS011;4334;49.982;8.398;2023-02-04T07:39:10;16.93;;;4.40;;
8592;SDS011;4334;49.982;8.398;2023-02-04T07:41:37;18.93;;;4.37;;
8592;SDS011;4334;49.982;8.398;2023-02-04T07:44:04;32.87;;;6.40;;
8592;SDS011;4334;49.982;8.398;2023-02-04T07:46:31;25.10;;;5.50;;
8592;SDS011;4334;49.982;8.398;2023-02-04T07:48:59;18.40;;;4.60;;
8592;SDS011;4334;49.982;8.398;2023-02-04T07:51:25;27.60;;;4.70;;
8592;SDS011;4334;49.982;8.398;2023-02-04T07:53:52;22.33;;;4.60;;
8592;SDS011;4334;49.982;8.398;2023-02-04T07:56:19;27.73;;;4.70;;
8592;SDS011;4334;49.982;8.398;2023-02-04T07:58:46;18.97;;;4.97;;
8592;SDS011;4334;49.982;8.398;2023-02-04T08:01:13;19.80;;;4.63;;
8592;SDS011;4334;49.982;8.398;2023-02-04T08:03:40;22.67;;;5.07;;
8592;SDS011;4334;49.982;8.398;2023-02-04T08:06:09;14.17;;;4.43;;
8592;SDS011;4334;49.982;8.398;2023-02-04T08:08:36;19.57;;;4.73;;
8592;SDS011;4334;49.982;8.398;2023-02-04T08:11:02;20.70;;;4.53;;
8592;SDS011;4334;49.982;8.398;2023-02-04T08:13:29;20.70;;;4.10;;
8592;SDS011;4334;49.982;8.398;2023-02-04T08:15:56;16.13;;;4.13;;
8592;SDS011;4334;49.982;8.398;2023-02-04T08:18:23;14.10;;;3.83;;
8592;SDS011;4334;49.982;8.398;2023-02-04T08:20:50;21.97;;;4.00;;
8592;SDS011;4334;49.982;8.398;2023-02-04T08:23:18;17.37;;;4.23;;
8592;SDS011;4334;49.982;8.398;2023-02-04T08:25:44;18.97;;;3.80;;
8592;SDS011;4334;49.982;8.398;2023-02-04T08:28:11;21.17;;;3.77;;
8592;SDS011;4334;49.982;8.398;2023-02-04T08:30:38;14.07;;;3.90;;
8592;SDS011;4334;49.982;8.398;2023-02-04T08:33:05;15.93;;;4.33;;
8592;SDS011;4334;49.982;8.398;2023-02-04T08:35:32;19.97;;;4.40;;
8592;SDS011;4334;49.982;8.398;2023-02-04T08:37:58;19.13;;;4.40;;
8592;SDS011;4334;49.982;8.398;2023-02-04T08:40:27;20.90;;;4.67;;
8592;SDS011;4334;49.982;8.398;2023-02-04T08:42:54;15.70;;;4.20;;
8592;SDS011;4334;49.982;8.398;2023-02-04T08:45:20;20.20;;;3.70;;
8592;SDS011;4334;49.982;8.398;2023-02-04T08:47:47;22.10;;;4.10;;
8592;SDS011;4334;49.982;8.398;2023-02-04T08:50:14;16.10;;;3.93;;
8592;SDS011;4334;49.982;8.398;2023-02-04T08:52:41;22.13;;;3.70;;
8592;SDS011;4334;49.982;8.398;2023-02-04T08:55:08;13.47;;;3.57;;
8592;SDS011;4334;49.982;8.398;2023-02-04T08:57:36;15.53;;;3.73;;
8592;SDS011;4334;49.982;8.398;2023-02-04T09:00:03;18.43;;;3.93;;
8592;SDS011;4334;49.982;8.398;2023-02-04T09:02:30;15.97;;;3.80;;
8592;SDS011;4334;49.982;8.398;2023-02-04T09:04:57;20.73;;;3.73;;
8592;SDS011;4334;49.982;8.398;2023-02-04T09:07:24;18.97;;;4.37;;
8592;SDS011;4334;49.982;8.398;2023-02-04T09:09:51;14.57;;;3.93;;
8592;SDS011;4334;49.982;8.398;2023-02-04T09:12:18;15.60;;;4.40;;
8592;SDS011;4334;49.982;8.398;2023-02-04T09:14:46;16.70;;;4.23;;
8592;SDS011;4334;49.982;8.398;2023-02-04T09:17:12;18.33;;;3.87;;
8592;SDS011;4334;49.982;8.398;2023-02-04T09:19:39;18.20;;;4.27;;
8592;SDS011;4334;49.982;8.398;2023-02-04T09:22:06;15.57;;;3.67;;
8592;SDS011;4334;49.982;8.398;2023-02-04T09:24:33;15.63;;;3.43;;
8592;SDS011;4334;49.982;8.398;2023-02-04T09:26:59;20.00;;;4.30;;
8592;SDS011;4334;49.982;8.398;2023-02-04T09:29:26;13.33;;;3.77;;
8592;SDS011;4334;49.982;8.398;2023-02-04T09:31:54;15.30;;;3.90;;
8592;SDS011;4334;49.982;8.398;2023-02-04T09:34:22;17.37;;;3.33;;
8592;SDS011;4334;49.982;8.398;2023-02-04T09:36:49;18.73;;;3.83;;
8592;SDS011;4334;49.982;8.398;2023-02-04T09:39:15;14.10;;;3.83;;
8592;SDS011;4334;49.982;8.398;2023-02-04T09:41:42;17.67;;;3.87;;
8592;SDS011;4334;49.982;8.398;2023-02-04T09:44:09;14.57;;;3.47;;
8592;SDS011;4334;49.982;8.398;2023-02-04T09:46:40;14.97;;;3.57;;
8592;SDS011;4334;49.982;8.398;2023-02-04T09:49:12;16.67;;;3.43;;
8592;SDS011;4334;49.982;8.398;2023-02-04T09:51:39;19.20;;;3.23;;
8592;SDS011;4334;49.982;8.398;2023-02-04T09:54:10;12.47;;;3.20;;
8592;SDS011;4334;49.982;8.398;2023-02-04T09:56:38;13.60;;;2.80;;
8592;SDS011;4334;49.982;8.398;2023-02-04T09:59:08;12.57;;;2.77;;
8592;SDS011;4334;49.982;8.398;2023-02-04T10:01:37;9.93;;;2.80;;
8592;SDS011;4334;49.982;8.398;2023-02-04T10:04:04;16.53;;;3.47;;
8592;SDS011;4334;49.982;8.398;2023-02-04T10:06:36;16.50;;;3.20;;
8592;SDS011;4334;49.982;8.398;2023-02-04T10:09:03;17.97;;;3.30;;
8592;SDS011;4334;49.982;8.398;2023-02-04T10:11:30;13.43;;;3.53;;
8592;SDS011;4334;49.982;8.398;2023-02-04T10:14:01;12.80;;;2.97;;
8592;SDS011;4334;49.982;8.398;2023-02-04T10:16:29;15.47;;;3.37;;
8592;SDS011;4334;49.982;8.398;2023-02-04T10:18:58;13.30;;;3.67;;
8592;SDS011;4334;49.982;8.398;2023-02-04T10:21:28;13.90;;;3.10;;
8592;SDS011;4334;49.982;8.398;2023-02-04T10:23:58;15.13;;;3.30;;
8592;SDS011;4334;49.982;8.398;2023-02-04T10:26:26;14.83;;;3.47;;
8592;SDS011;4334;49.982;8.398;2023-02-04T10:28:59;15.80;;;3.43;;
8592;SDS011;4334;49.982;8.398;2023-02-04T10:31:30;11.47;;;3.07;;
8592;SDS011;4334;49.982;8.398;2023-02-04T10:34:02;18.57;;;4.07;;
8592;SDS011;4334;49.982;8.398;2023-02-04T10:36:35;16.13;;;3.83;;
8592;SDS011;4334;49.982;8.398;2023-02-04T10:39:05;12.80;;;3.23;;
8592;SDS011;4334;49.982;8.398;2023-02-04T10:41:36;12.70;;;3.03;;
8592;SDS011;4334;49.982;8.398;2023-02-04T10:44:04;11.17;;;3.20;;
8592;SDS011;4334;49.982;8.398;2023-02-04T10:46:32;16.83;;;3.13;;
8592;SDS011;4334;49.982;8.398;2023-02-04T10:48:59;14.13;;;3.23;;
8592;SDS011;4334;49.982;8.398;2023-02-04T10:51:28;17.10;;;3.50;;
8592;SDS011;4334;49.982;8.398;2023-02-04T10:53:55;11.73;;;3.03;;
8592;SDS011;4334;49.982;8.398;2023-02-04T10:56:40;15.67;;;2.90;;
8592;SDS011;4334;49.982;8.398;2023-02-04T10:59:09;9.33;;;2.20;;
8592;SDS011;4334;49.982;8.398;2023-02-04T11:01:45;11.43;;;2.40;;
8592;SDS011;4334;49.982;8.398;2023-02-04T11:04:12;11.27;;;2.73;;
8592;SDS011;4334;49.982;8.398;2023-02-04T11:06:39;14.50;;;2.70;;
8592;SDS011;4334;49.982;8.398;2023-02-04T11:09:06;11.33;;;2.80;;
8592;SDS011;4334;49.982;8.398;2023-02-04T11:11:36;11.20;;;2.73;;
8592;SDS011;4334;49.982;8.398;2023-02-04T11:14:17;10.77;;;2.97;;
8592;SDS011;4334;49.982;8.398;2023-02-04T11:16:48;10.17;;;3.03;;
8592;SDS011;4334;49.982;8.398;2023-02-04T11:19:28;18.73;;;4.30;;
8592;SDS011;4334;49.982;8.398;2023-02-04T11:22:03;14.30;;;3.70;;
8592;SDS011;4334;49.982;8.398;2023-02-04T11:24:45;9.23;;;2.83;;
8592;SDS011;4334;49.982;8.398;2023-02-04T11:27:17;12.17;;;3.20;;
8592;SDS011;4334;49.982;8.398;2023-02-04T11:29:48;13.40;;;3.20;;
8592;SDS011;4334;49.982;8.398;2023-02-04T11:32:32;17.10;;;2.90;;
8592;SDS011;4334;49.982;8.398;2023-02-04T11:35:06;14.63;;;2.90;;
8592;SDS011;4334;49.982;8.398;2023-02-04T11:37:51;11.67;;;3.00;;
8592;SDS011;4334;49.982;8.398;2023-02-04T11:40:19;13.57;;;2.93;;
8592;SDS011;4334;49.982;8.398;2023-02-04T11:42:54;13.63;;;2.73;;
8592;SDS011;4334;49.982;8.398;2023-02-04T11:45:27;13.70;;;3.00;;
8592;SDS011;4334;49.982;8.398;2023-02-04T11:47:56;11.07;;;2.90;;
8592;SDS011;4334;49.982;8.398;2023-02-04T11:50:26;11.07;;;2.67;;
8592;SDS011;4334;49.982;8.398;2023-02-04T11:52:55;9.47;;;2.73;;
8592;SDS011;4334;49.982;8.398;2023-02-04T11:55:23;10.50;;;2.90;;
8592;SDS011;4334;49.982;8.398;2023-02-04T11:57:50;10.50;;;2.57;;
8592;SDS011;4334;49.982;8.398;2023-02-04T12:00:20;11.87;;;2.90;;
8592;SDS011;4334;49.982;8.398;2023-02-04T12:02:50;10.10;;;2.87;;
8592;SDS011;4334;49.982;8.398;2023-02-04T12:05:28;9.77;;;3.13;;
8592;SDS011;4334;49.982;8.398;2023-02-04T12:08:08;10.30;;;3.13;;
8592;SDS011;4334;49.982;8.398;2023-02-04T12:10:37;12.77;;;2.80;;
8592;SDS011;4334;49.982;8.398;2023-02-04T12:13:11;17.07;;;3.70;;
8592;SDS011;4334;49.982;8.398;2023-02-04T12:15:38;10.20;;;2.80;;
8592;SDS011;4334;49.982;8.398;2023-02-04T12:18:07;9.80;;;2.83;;
8592;SDS011;4334;49.982;8.398;2023-02-04T12:20:36;10.90;;;2.80;;
8592;SDS011;4334;49.982;8.398;2023-02-04T12:23:04;14.83;;;3.23;;
8592;SDS011;4334;49.982;8.398;2023-02-04T12:25:32;12.97;;;3.23;;
8592;SDS011;4334;49.982;8.398;2023-02-04T12:27:59;11.13;;;2.70;;
8592;SDS011;4334;49.982;8.398;2023-02-04T12:30:26;13.67;;;3.30;;
8592;SDS011;4334;49.982;8.398;2023-02-04T12:32:53;12.87;;;3.27;;
8592;SDS011;4334;49.982;8.398;2023-02-04T12:35:21;14.27;;;3.20;;
8592;SDS011;4334;49.982;8.398;2023-02-04T12:37:48;13.47;;;3.20;;
8592;SDS011;4334;49.982;8.398;2023-02-04T12:40:15;9.97;;;2.67;;
8592;SDS011;4334;49.982;8.398;2023-02-04T12:42:43;10.13;;;2.77;;
8592;SDS011;4334;49.982;8.398;2023-02-04T12:45:10;13.80;;;2.90;;
8592;SDS011;4334;49.982;8.398;2023-02-04T12:47:38;12.97;;;3.50;;
8592;SDS011;4334;49.982;8.398;2023-02-04T12:50:06;13.50;;;3.20;;
8592;SDS011;4334;49.982;8.398;2023-02-04T12:52:36;11.80;;;3.03;;
8592;SDS011;4334;49.982;8.398;2023-02-04T12:55:03;9.20;;;2.83;;
8592;SDS011;4334;49.982;8.398;2023-02-04T12:57:31;10.67;;;3.03;;
8592;SDS011;4334;49.982;8.398;2023-02-04T12:59:59;8.33;;;2.73;;
8592;SDS011;4334;49.982;8.398;2023-02-04T13:02:26;7.50;;;2.72;;
8592;SDS011;4334;49.982;8.398;2023-02-04T13:04:53;11.93;;;3.30;;
8592;SDS011;4334;49.982;8.398;2023-02-04T13:07:20;11.00;;;3.20;;
8592;SDS011;4334;49.982;8.398;2023-02-04T13:09:48;7.72;;;2.67;;
8592;SDS011;4334;49.982;8.398;2023-02-04T13:12:16;11.98;;;3.35;;
8592;SDS011;4334;49.982;8.398;2023-02-04T13:14:43;11.30;;;3.28;;
8592;SDS011;4334;49.982;8.398;2023-02-04T13:17:10;10.07;;;2.97;;
8592;SDS011;4334;49.982;8.398;2023-02-04T13:19:37;9.30;;;3.30;;
8592;SDS011;4334;49.982;8.398;2023-02-04T13:22:04;9.32;;;2.83;;
8592;SDS011;4334;49.982;8.398;2023-02-04T13:24:30;7.80;;;2.80;;
8592;SDS011;4334;49.982;8.398;2023-02-04T13:26:59;9.43;;;3.83;;
8592;SDS011;4334;49.982;8.398;2023-02-04T13:29:25;15.45;;;6.40;;
8592;SDS011;4334;49.982;8.398;2023-02-04T13:31:52;10.27;;;3.07;;
8592;SDS011;4334;49.982;8.398;2023-02-04T13:34:19;10.67;;;2.90;;
8592;SDS011;4334;49.982;8.398;2023-02-04T13:36:46;9.07;;;3.27;;
8592;SDS011;4334;49.982;8.398;2023-02-04T13:39:13;8.30;;;2.77;;
8592;SDS011;4334;49.982;8.398;2023-02-04T13:41:39;8.40;;;2.60;;
8592;SDS011;4334;49.982;8.398;2023-02-04T13:44:07;12.67;;;2.93;;
8592;SDS011;4334;49.982;8.398;2023-02-04T13:46:34;11.57;;;2.90;;
8592;SDS011;4334;49.982;8.398;2023-02-04T13:49:01;8.77;;;2.93;;
8592;SDS011;4334;49.982;8.398;2023-02-04T13:51:29;11.93;;;3.13;;
8592;SDS011;4334;49.982;8.398;2023-02-04T13:53:55;9.60;;;3.00;;
8592;SDS011;4334;49.982;8.398;2023-02-04T13:56:23;11.60;;;3.00;;
8592;SDS011;4334;49.982;8.398;2023-02-04T13:58:50;10.17;;;2.67;;
8592;SDS011;4334;49.982;8.398;2023-02-04T14:01:18;10.50;;;2.70;;
8592;SDS011;4334;49.982;8.398;2023-02-04T14:03:45;11.37;;;3.00;;
8592;SDS011;4334;49.982;8.398;2023-02-04T14:06:12;12.70;;;2.93;;
8592;SDS011;4334;49.982;8.398;2023-02-04T14:08:40;10.43;;;2.80;;
8592;SDS011;4334;49.982;8.398;2023-02-04T14:11:07;12.73;;;2.77;;
8592;SDS011;4334;49.982;8.398;2023-02-04T14:13:34;7.80;;;2.27;;
8592;SDS011;4334;49.982;8.398;2023-02-04T14:16:00;11.47;;;2.60;;
8592;SDS011;4334;49.982;8.398;2023-02-04T14:18:28;9.83;;;2.93;;
8592;SDS011;4334;49.982;8.398;2023-02-04T14:20:55;9.93;;;2.30;;
8592;SDS011;4334;49.982;8.398;2023-02-04T14:23:22;8.13;;;2.20;;
8592;SDS011;4334;49.982;8.398;2023-02-04T14:25:49;12.00;;;2.40;;
8592;SDS011;4334;49.982;8.398;2023-02-04T14:28:16;13.63;;;2.73;;
8592;SDS011;4334;49.982;8.398;2023-02-04T14:30:43;13.53;;;2.80;;
8592;SDS011;4334;49.982;8.398;2023-02-04T14:33:09;10.30;;;2.60;;
8592;SDS011;4334;49.982;8.398;2023-02-04T14:35:38;9.77;;;3.00;;
8592;SDS011;4334;49.982;8.398;2023-02-04T14:38:05;11.77;;;3.07;;
8592;SDS011;4334;49.982;8.398;2023-02-04T14:40:31;11.90;;;2.67;;
8592;SDS011;4334;49.982;8.398;2023-02-04T14:42:58;10.43;;;3.07;;
8592;SDS011;4334;49.982;8.398;2023-02-04T14:45:25;9.07;;;2.47;;
8592;SDS011;4334;49.982;8.398;2023-02-04T14:47:52;9.60;;;2.70;;
8592;SDS011;4334;49.982;8.398;2023-02-04T14:50:21;14.33;;;2.60;;
8592;SDS011;4334;49.982;8.398;2023-02-04T14:52:55;11.37;;;2.47;;
8592;SDS011;4334;49.982;8.398;2023-02-04T14:55:23;11.73;;;2.57;;
8592;SDS011;4334;49.982;8.398;2023-02-04T14:57:50;8.50;;;2.30;;
8592;SDS011;4334;49.982;8.398;2023-02-04T15:00:18;9.63;;;2.87;;
8592;SDS011;4334;49.982;8.398;2023-02-04T15:02:45;11.37;;;2.70;;
8592;SDS011;4334;49.982;8.398;2023-02-04T15:05:12;13.07;;;2.73;;
8592;SDS011;4334;49.982;8.398;2023-02-04T15:07:39;11.57;;;2.93;;
8592;SDS011;4334;49.982;8.398;2023-02-04T15:10:08;14.13;;;3.17;;